sensor_id;sensor_type;location;lat;lon;timestamp;P1;durP1;ratioP1;P2;durP2;ratioP2
72590;SDS011;60625;51.212;5.952;2023-05-06T00:03:42;12.70;;;9.00;;
72590;SDS011;60625;51.212;5.952;2023-05-06T00:08:42;10.30;;;6.50;;
72590;SDS011;60625;51.212;5.952;2023-05-06T00:13:43;12.20;;;8.10;;
72590;SDS011;60625;51.212;5.952;2023-05-06T00:18:43;10.90;;;7.50;;
72590;SDS011;60625;51.212;5.952;2023-05-06T00:23:44;11.40;;;7.10;;
72590;SDS011;60625;51.212;5.952;2023-05-06T00:28:44;12.80;;;7.30;;
72590;SDS011;60625;51.212;5.952;2023-05-06T00:33:45;11.20;;;6.90;;
72590;SDS011;60625;51.212;5.952;2023-05-06T00:38:45;9.60;;;6.80;;
72590;SDS011;60625;51.212;5.952;2023-05-06T00:43:46;12.10;;;7.70;;
72590;SDS011;60625;51.212;5.952;2023-05-06T00:48:47;12.70;;;9.60;;
72590;SDS011;60625;51.212;5.952;2023-05-06T00:53:48;12.80;;;9.10;;
72590;SDS011;60625;51.212;5.952;2023-05-06T00:58:49;12.50;;;8.60;;
72590;SDS011;60625;51.212;5.952;2023-05-06T01:03:49;10.80;;;7.90;;
72590;SDS011;60625;51.212;5.952;2023-05-06T01:14:54;11.10;;;7.60;;
72590;SDS011;60625;51.212;5.952;2023-05-06T01:20:01;9.20;;;5.90;;
72590;SDS011;60625;51.212;5.952;2023-05-06T01:25:05;10.80;;;7.30;;
72590;SDS011;60625;51.212;5.952;2023-05-06T01:30:06;10.20;;;7.10;;
72590;SDS011;60625;51.212;5.952;2023-05-06T01:40:24;7.90;;;4.90;;
72590;SDS011;60625;51.212;5.952;2023-05-06T01:45:27;5.90;;;3.80;;
72590;SDS011;60625;51.212;5.952;2023-05-06T01:50:32;5.60;;;3.80;;
72590;SDS011;60625;51.212;5.952;2023-05-06T01:55:34;6.90;;;5.00;;
72590;SDS011;60625;51.212;5.952;2023-05-06T02:00:36;10.80;;;6.80;;
72590;SDS011;60625;51.212;5.952;2023-05-06T02:05:37;16.30;;;7.50;;
72590;SDS011;60625;51.212;5.952;2023-05-06T02:10:38;10.90;;;7.60;;
72590;SDS011;60625;51.212;5.952;2023-05-06T02:15:41;11.60;;;7.70;;
72590;SDS011;60625;51.212;5.952;2023-05-06T02:20:46;8.60;;;4.90;;
72590;SDS011;60625;51.212;5.952;2023-05-06T02:25:49;8.50;;;5.50;;
72590;SDS011;60625;51.212;5.952;2023-05-06T02:30:57;10.90;;;6.80;;
72590;SDS011;60625;51.212;5.952;2023-05-06T02:35:58;10.90;;;6.80;;
72590;SDS011;60625;51.212;5.952;2023-05-06T02:40:58;11.50;;;7.80;;
72590;SDS011;60625;51.212;5.952;2023-05-06T02:45:59;8.90;;;5.80;;
72590;SDS011;60625;51.212;5.952;2023-05-06T02:51:00;6.80;;;4.30;;
72590;SDS011;60625;51.212;5.952;2023-05-06T02:56:01;11.10;;;6.70;;
72590;SDS011;60625;51.212;5.952;2023-05-06T03:01:02;9.70;;;6.10;;
72590;SDS011;60625;51.212;5.952;2023-05-06T03:06:02;5.90;;;3.70;;
72590;SDS011;60625;51.212;5.952;2023-05-06T03:11:03;10.30;;;5.50;;
72590;SDS011;60625;51.212;5.952;2023-05-06T03:16:04;13.80;;;7.00;;
72590;SDS011;60625;51.212;5.952;2023-05-06T03:21:05;6.50;;;3.80;;
72590;SDS011;60625;51.212;5.952;2023-05-06T03:26:07;5.30;;;3.00;;
72590;SDS011;60625;51.212;5.952;2023-05-06T03:31:08;7.60;;;4.30;;
72590;SDS011;60625;51.212;5.952;2023-05-06T03:36:09;11.60;;;6.10;;
72590;SDS011;60625;51.212;5.952;2023-05-06T03:41:10;8.40;;;5.50;;
72590;SDS011;60625;51.212;5.952;2023-05-06T03:46:11;10.30;;;6.40;;
72590;SDS011;60625;51.212;5.952;2023-05-06T03:51:13;9.30;;;5.60;;
72590;SDS011;60625;51.212;5.952;2023-05-06T03:56:14;10.60;;;5.90;;
72590;SDS011;60625;51.212;5.952;2023-05-06T04:01:18;7.70;;;4.20;;
72590;SDS011;60625;51.212;5.952;2023-05-06T04:06:19;8.70;;;5.80;;
72590;SDS011;60625;51.212;5.952;2023-05-06T04:11:19;11.20;;;6.30;;
72590;SDS011;60625;51.212;5.952;2023-05-06T04:16:20;9.80;;;6.30;;
72590;SDS011;60625;51.212;5.952;2023-05-06T04:21:21;10.90;;;5.50;;
72590;SDS011;60625;51.212;5.952;2023-05-06T04:26:27;10.80;;;6.20;;
72590;SDS011;60625;51.212;5.952;2023-05-06T04:31:28;10.70;;;6.30;;
72590;SDS011;60625;51.212;5.952;2023-05-06T04:36:29;9.90;;;5.90;;
72590;SDS011;60625;51.212;5.952;2023-05-06T04:41:50;6.90;;;3.90;;
72590;SDS011;60625;51.212;5.952;2023-05-06T04:46:55;8.80;;;5.30;;
72590;SDS011;60625;51.212;5.952;2023-05-06T04:51:56;6.80;;;4.20;;
72590;SDS011;60625;51.212;5.952;2023-05-06T04:56:58;8.20;;;5.10;;
72590;SDS011;60625;51.212;5.952;2023-05-06T05:01:59;9.90;;;5.90;;
72590;SDS011;60625;51.212;5.952;2023-05-06T05:07:00;9.20;;;5.40;;
72590;SDS011;60625;51.212;5.952;2023-05-06T05:12:02;12.10;;;6.90;;
72590;SDS011;60625;51.212;5.952;2023-05-06T05:17:04;10.60;;;6.10;;
72590;SDS011;60625;51.212;5.952;2023-05-06T05:22:05;9.80;;;6.30;;
72590;SDS011;60625;51.212;5.952;2023-05-06T05:27:06;13.30;;;6.70;;
72590;SDS011;60625;51.212;5.952;2023-05-06T05:32:07;12.10;;;6.30;;
72590;SDS011;60625;51.212;5.952;2023-05-06T05:37:09;11.70;;;6.50;;
72590;SDS011;60625;51.212;5.952;2023-05-06T05:42:10;10.50;;;6.40;;
72590;SDS011;60625;51.212;5.952;2023-05-06T05:47:12;10.00;;;6.70;;
72590;SDS011;60625;51.212;5.952;2023-05-06T05:52:14;10.90;;;6.00;;
72590;SDS011;60625;51.212;5.952;2023-05-06T05:57:16;11.20;;;6.10;;
72590;SDS011;60625;51.212;5.952;2023-05-06T06:02:17;10.50;;;5.80;;
72590;SDS011;60625;51.212;5.952;2023-05-06T06:07:17;10.90;;;5.60;;
72590;SDS011;60625;51.212;5.952;2023-05-06T06:12:19;8.00;;;5.50;;
72590;SDS011;60625;51.212;5.952;2023-05-06T06:17:19;8.50;;;4.80;;
72590;SDS011;60625;51.212;5.952;2023-05-06T06:22:22;7.40;;;4.70;;
72590;SDS011;60625;51.212;5.952;2023-05-06T06:27:24;6.90;;;4.80;;
72590;SDS011;60625;51.212;5.952;2023-05-06T06:32:24;10.60;;;5.40;;
72590;SDS011;60625;51.212;5.952;2023-05-06T06:37:25;9.00;;;5.20;;
72590;SDS011;60625;51.212;5.952;2023-05-06T06:42:26;9.30;;;4.80;;
72590;SDS011;60625;51.212;5.952;2023-05-06T06:47:40;8.30;;;4.20;;
72590;SDS011;60625;51.212;5.952;2023-05-06T06:52:40;7.90;;;4.10;;
72590;SDS011;60625;51.212;5.952;2023-05-06T06:57:41;7.40;;;4.10;;
72590;SDS011;60625;51.212;5.952;2023-05-06T07:02:41;8.10;;;4.20;;
72590;SDS011;60625;51.212;5.952;2023-05-06T07:07:42;9.00;;;4.20;;
72590;SDS011;60625;51.212;5.952;2023-05-06T07:12:43;9.20;;;3.50;;
72590;SDS011;60625;51.212;5.952;2023-05-06T07:17:43;9.20;;;3.40;;
72590;SDS011;60625;51.212;5.952;2023-05-06T07:22:44;5.80;;;3.00;;
72590;SDS011;60625;51.212;5.952;2023-05-06T07:27:45;7.10;;;3.30;;
72590;SDS011;60625;51.212;5.952;2023-05-06T07:32:45;5.10;;;2.90;;
72590;SDS011;60625;51.212;5.952;2023-05-06T07:37:46;8.10;;;3.00;;
72590;SDS011;60625;51.212;5.952;2023-05-06T07:42:47;5.40;;;2.70;;
72590;SDS011;60625;51.212;5.952;2023-05-06T07:47:47;10.40;;;3.00;;
72590;SDS011;60625;51.212;5.952;2023-05-06T07:52:48;7.60;;;2.90;;
72590;SDS011;60625;51.212;5.952;2023-05-06T07:57:48;5.30;;;2.40;;
72590;SDS011;60625;51.212;5.952;2023-05-06T08:02:49;5.70;;;2.20;;
72590;SDS011;60625;51.212;5.952;2023-05-06T08:07:49;5.80;;;2.40;;
72590;SDS011;60625;51.212;5.952;2023-05-06T08:12:50;5.50;;;1.90;;
72590;SDS011;60625;51.212;5.952;2023-05-06T08:17:51;5.20;;;1.60;;
72590;SDS011;60625;51.212;5.952;2023-05-06T08:22:51;5.20;;;2.00;;
72590;SDS011;60625;51.212;5.952;2023-05-06T08:27:52;6.50;;;2.40;;
72590;SDS011;60625;51.212;5.952;2023-05-06T08:32:52;5.50;;;2.00;;
72590;SDS011;60625;51.212;5.952;2023-05-06T08:37:53;6.00;;;2.10;;
72590;SDS011;60625;51.212;5.952;2023-05-06T08:42:54;6.40;;;1.80;;
72590;SDS011;60625;51.212;5.952;2023-05-06T08:47:56;5.40;;;2.60;;
72590;SDS011;60625;51.212;5.952;2023-05-06T08:52:57;4.50;;;1.60;;
72590;SDS011;60625;51.212;5.952;2023-05-06T08:58:00;5.50;;;2.10;;
72590;SDS011;60625;51.212;5.952;2023-05-06T09:03:00;4.90;;;1.70;;
72590;SDS011;60625;51.212;5.952;2023-05-06T09:08:01;4.90;;;1.80;;
72590;SDS011;60625;51.212;5.952;2023-05-06T09:13:02;4.90;;;2.00;;
72590;SDS011;60625;51.212;5.952;2023-05-06T09:18:02;6.10;;;2.40;;
72590;SDS011;60625;51.212;5.952;2023-05-06T09:23:03;8.20;;;2.20;;
72590;SDS011;60625;51.212;5.952;2023-05-06T09:28:09;4.40;;;1.50;;
72590;SDS011;60625;51.212;5.952;2023-05-06T09:33:11;4.40;;;2.10;;
72590;SDS011;60625;51.212;5.952;2023-05-06T09:38:11;5.60;;;2.10;;
72590;SDS011;60625;51.212;5.952;2023-05-06T09:43:11;4.00;;;1.50;;
72590;SDS011;60625;51.212;5.952;2023-05-06T09:48:13;4.40;;;1.40;;
72590;SDS011;60625;51.212;5.952;2023-05-06T09:53:15;4.50;;;1.80;;
72590;SDS011;60625;51.212;5.952;2023-05-06T09:58:18;3.70;;;1.60;;
72590;SDS011;60625;51.212;5.952;2023-05-06T10:03:20;6.00;;;2.60;;
72590;SDS011;60625;51.212;5.952;2023-05-06T10:08:22;5.50;;;1.90;;
72590;SDS011;60625;51.212;5.952;2023-05-06T10:13:23;7.40;;;2.40;;
72590;SDS011;60625;51.212;5.952;2023-05-06T10:18:25;5.50;;;1.90;;
72590;SDS011;60625;51.212;5.952;2023-05-06T10:23:36;7.50;;;2.40;;
72590;SDS011;60625;51.212;5.952;2023-05-06T10:28:52;6.10;;;2.40;;
72590;SDS011;60625;51.212;5.952;2023-05-06T10:33:53;5.50;;;2.40;;
72590;SDS011;60625;51.212;5.952;2023-05-06T10:38:55;5.20;;;2.20;;
72590;SDS011;60625;51.212;5.952;2023-05-06T10:43:59;6.70;;;2.10;;
72590;SDS011;60625;51.212;5.952;2023-05-06T10:54:07;5.10;;;1.60;;
72590;SDS011;60625;51.212;5.952;2023-05-06T10:59:09;4.60;;;1.60;;
72590;SDS011;60625;51.212;5.952;2023-05-06T11:04:16;4.60;;;1.70;;
72590;SDS011;60625;51.212;5.952;2023-05-06T11:09:22;5.80;;;1.40;;
72590;SDS011;60625;51.212;5.952;2023-05-06T11:14:31;6.40;;;1.70;;
72590;SDS011;60625;51.212;5.952;2023-05-06T11:19:36;7.10;;;1.70;;
72590;SDS011;60625;51.212;5.952;2023-05-06T11:24:42;5.30;;;1.70;;
72590;SDS011;60625;51.212;5.952;2023-05-06T11:29:43;6.20;;;1.70;;
72590;SDS011;60625;51.212;5.952;2023-05-06T11:34:43;6.70;;;2.30;;
72590;SDS011;60625;51.212;5.952;2023-05-06T11:39:47;3.00;;;1.00;;
72590;SDS011;60625;51.212;5.952;2023-05-06T11:44:48;4.40;;;1.60;;
72590;SDS011;60625;51.212;5.952;2023-05-06T11:49:52;5.00;;;1.70;;
72590;SDS011;60625;51.212;5.952;2023-05-06T11:54:53;5.80;;;1.40;;
72590;SDS011;60625;51.212;5.952;2023-05-06T11:59:54;4.10;;;1.40;;
72590;SDS011;60625;51.212;5.952;2023-05-06T12:04:55;4.80;;;1.60;;
72590;SDS011;60625;51.212;5.952;2023-05-06T12:09:56;5.20;;;1.50;;
72590;SDS011;60625;51.212;5.952;2023-05-06T12:14:58;4.40;;;1.40;;
72590;SDS011;60625;51.212;5.952;2023-05-06T12:19:59;3.80;;;1.20;;
72590;SDS011;60625;51.212;5.952;2023-05-06T12:25:11;4.60;;;1.20;;
72590;SDS011;60625;51.212;5.952;2023-05-06T12:30:13;5.60;;;1.40;;
72590;SDS011;60625;51.212;5.952;2023-05-06T12:35:27;4.30;;;1.30;;
72590;SDS011;60625;51.212;5.952;2023-05-06T12:40:29;4.00;;;1.60;;
72590;SDS011;60625;51.212;5.952;2023-05-06T12:45:29;5.00;;;1.30;;
72590;SDS011;60625;51.212;5.952;2023-05-06T12:50:35;4.60;;;1.40;;
72590;SDS011;60625;51.212;5.952;2023-05-06T12:55:40;3.80;;;1.30;;
72590;SDS011;60625;51.212;5.952;2023-05-06T13:00:41;4.20;;;1.40;;
72590;SDS011;60625;51.212;5.952;2023-05-06T13:05:42;5.40;;;1.50;;
72590;SDS011;60625;51.212;5.952;2023-05-06T13:10:42;6.80;;;1.40;;
72590;SDS011;60625;51.212;5.952;2023-05-06T13:15:43;5.60;;;1.60;;
72590;SDS011;60625;51.212;5.952;2023-05-06T13:20:43;6.40;;;1.30;;
72590;SDS011;60625;51.212;5.952;2023-05-06T13:25:45;5.80;;;1.80;;
72590;SDS011;60625;51.212;5.952;2023-05-06T13:30:45;5.20;;;1.30;;
72590;SDS011;60625;51.212;5.952;2023-05-06T13:35:46;5.30;;;1.70;;
72590;SDS011;60625;51.212;5.952;2023-05-06T13:40:50;5.80;;;1.20;;
72590;SDS011;60625;51.212;5.952;2023-05-06T13:45:52;4.40;;;0.80;;
72590;SDS011;60625;51.212;5.952;2023-05-06T13:50:52;5.00;;;1.60;;
72590;SDS011;60625;51.212;5.952;2023-05-06T13:55:53;6.50;;;1.90;;
72590;SDS011;60625;51.212;5.952;2023-05-06T14:00:53;6.20;;;1.80;;
72590;SDS011;60625;51.212;5.952;2023-05-06T14:05:54;5.10;;;1.40;;
72590;SDS011;60625;51.212;5.952;2023-05-06T14:10:54;5.20;;;1.60;;
72590;SDS011;60625;51.212;5.952;2023-05-06T14:15:55;3.90;;;1.50;;
72590;SDS011;60625;51.212;5.952;2023-05-06T14:20:55;3.70;;;1.50;;
72590;SDS011;60625;51.212;5.952;2023-05-06T14:25:56;4.60;;;1.80;;
72590;SDS011;60625;51.212;5.952;2023-05-06T14:30:56;4.50;;;1.90;;
72590;SDS011;60625;51.212;5.952;2023-05-06T14:35:57;6.10;;;1.40;;
72590;SDS011;60625;51.212;5.952;2023-05-06T14:40:57;5.60;;;1.70;;
72590;SDS011;60625;51.212;5.952;2023-05-06T14:45:58;4.50;;;2.00;;
72590;SDS011;60625;51.212;5.952;2023-05-06T14:50:58;4.80;;;1.30;;
72590;SDS011;60625;51.212;5.952;2023-05-06T14:55:59;6.30;;;1.80;;
72590;SDS011;60625;51.212;5.952;2023-05-06T15:01:00;5.80;;;2.20;;
72590;SDS011;60625;51.212;5.952;2023-05-06T15:06:00;5.80;;;1.80;;
72590;SDS011;60625;51.212;5.952;2023-05-06T15:11:01;6.00;;;1.80;;
72590;SDS011;60625;51.212;5.952;2023-05-06T15:16:02;5.20;;;1.80;;
72590;SDS011;60625;51.212;5.952;2023-05-06T15:21:03;5.10;;;2.00;;
72590;SDS011;60625;51.212;5.952;2023-05-06T15:26:04;3.70;;;1.80;;
72590;SDS011;60625;51.212;5.952;2023-05-06T15:31:05;8.00;;;1.90;;
72590;SDS011;60625;51.212;5.952;2023-05-06T15:36:05;4.30;;;2.10;;
72590;SDS011;60625;51.212;5.952;2023-05-06T15:41:06;7.00;;;1.90;;
72590;SDS011;60625;51.212;5.952;2023-05-06T15:46:07;5.80;;;1.90;;
72590;SDS011;60625;51.212;5.952;2023-05-06T15:51:07;4.80;;;1.90;;
72590;SDS011;60625;51.212;5.952;2023-05-06T15:56:09;8.10;;;1.60;;
72590;SDS011;60625;51.212;5.952;2023-05-06T16:01:11;5.80;;;1.70;;
72590;SDS011;60625;51.212;5.952;2023-05-06T16:06:14;5.40;;;2.20;;
72590;SDS011;60625;51.212;5.952;2023-05-06T16:11:14;4.50;;;2.30;;
72590;SDS011;60625;51.212;5.952;2023-05-06T16:16:14;5.30;;;1.70;;
72590;SDS011;60625;51.212;5.952;2023-05-06T16:21:15;5.30;;;2.20;;
72590;SDS011;60625;51.212;5.952;2023-05-06T16:26:16;4.60;;;2.10;;
72590;SDS011;60625;51.212;5.952;2023-05-06T16:31:17;5.20;;;1.80;;
72590;SDS011;60625;51.212;5.952;2023-05-06T16:36:17;3.30;;;1.60;;
72590;SDS011;60625;51.212;5.952;2023-05-06T16:41:18;4.40;;;1.50;;
72590;SDS011;60625;51.212;5.952;2023-05-06T16:46:18;6.60;;;4.10;;
72590;SDS011;60625;51.212;5.952;2023-05-06T16:51:19;4.80;;;1.90;;
72590;SDS011;60625;51.212;5.952;2023-05-06T16:56:19;4.20;;;1.90;;
72590;SDS011;60625;51.212;5.952;2023-05-06T17:01:20;5.70;;;1.50;;
72590;SDS011;60625;51.212;5.952;2023-05-06T17:06:20;4.10;;;1.60;;
72590;SDS011;60625;51.212;5.952;2023-05-06T17:11:24;3.80;;;1.60;;
72590;SDS011;60625;51.212;5.952;2023-05-06T17:16:24;5.20;;;1.40;;
72590;SDS011;60625;51.212;5.952;2023-05-06T17:21:24;4.20;;;1.50;;
72590;SDS011;60625;51.212;5.952;2023-05-06T17:26:26;6.20;;;1.90;;
72590;SDS011;60625;51.212;5.952;2023-05-06T17:31:27;3.70;;;1.80;;
72590;SDS011;60625;51.212;5.952;2023-05-06T17:36:28;4.50;;;1.80;;
72590;SDS011;60625;51.212;5.952;2023-05-06T17:41:28;5.00;;;2.00;;
72590;SDS011;60625;51.212;5.952;2023-05-06T17:46:29;3.60;;;1.70;;
72590;SDS011;60625;51.212;5.952;2023-05-06T17:51:30;6.50;;;2.10;;
72590;SDS011;60625;51.212;5.952;2023-05-06T17:56:30;6.60;;;2.40;;
72590;SDS011;60625;51.212;5.952;2023-05-06T18:01:31;5.70;;;2.30;;
72590;SDS011;60625;51.212;5.952;2023-05-06T18:06:32;4.60;;;2.30;;
72590;SDS011;60625;51.212;5.952;2023-05-06T18:11:33;5.80;;;2.30;;
72590;SDS011;60625;51.212;5.952;2023-05-06T18:16:34;7.00;;;2.70;;
72590;SDS011;60625;51.212;5.952;2023-05-06T18:21:34;4.30;;;2.40;;
72590;SDS011;60625;51.212;5.952;2023-05-06T18:26:35;7.50;;;2.90;;
72590;SDS011;60625;51.212;5.952;2023-05-06T18:31:36;4.80;;;2.60;;
72590;SDS011;60625;51.212;5.952;2023-05-06T18:36:36;5.70;;;2.80;;
72590;SDS011;60625;51.212;5.952;2023-05-06T18:41:36;4.90;;;2.30;;
72590;SDS011;60625;51.212;5.952;2023-05-06T18:46:37;5.20;;;2.50;;
72590;SDS011;60625;51.212;5.952;2023-05-06T18:51:37;6.10;;;2.70;;
72590;SDS011;60625;51.212;5.952;2023-05-06T18:56:38;7.00;;;2.50;;
72590;SDS011;60625;51.212;5.952;2023-05-06T19:01:38;6.80;;;2.90;;
72590;SDS011;60625;51.212;5.952;2023-05-06T19:06:39;6.90;;;2.80;;
72590;SDS011;60625;51.212;5.952;2023-05-06T19:11:40;5.90;;;2.70;;
72590;SDS011;60625;51.212;5.952;2023-05-06T19:16:40;5.20;;;2.70;;
72590;SDS011;60625;51.212;5.952;2023-05-06T19:21:41;7.10;;;2.70;;
72590;SDS011;60625;51.212;5.952;2023-05-06T19:26:41;4.70;;;2.80;;
72590;SDS011;60625;51.212;5.952;2023-05-06T19:31:42;6.40;;;3.20;;
72590;SDS011;60625;51.212;5.952;2023-05-06T19:36:42;6.10;;;2.90;;
72590;SDS011;60625;51.212;5.952;2023-05-06T19:41:43;6.80;;;3.20;;
72590;SDS011;60625;51.212;5.952;2023-05-06T19:46:43;6.70;;;3.00;;
72590;SDS011;60625;51.212;5.952;2023-05-06T19:51:43;5.60;;;2.70;;
72590;SDS011;60625;51.212;5.952;2023-05-06T19:56:44;6.60;;;3.40;;
72590;SDS011;60625;51.212;5.952;2023-05-06T20:01:45;6.80;;;3.10;;
72590;SDS011;60625;51.212;5.952;2023-05-06T20:06:45;5.70;;;3.40;;
72590;SDS011;60625;51.212;5.952;2023-05-06T20:11:46;10.70;;;3.30;;
72590;SDS011;60625;51.212;5.952;2023-05-06T20:16:46;6.50;;;2.90;;
72590;SDS011;60625;51.212;5.952;2023-05-06T20:21:46;6.80;;;3.40;;
72590;SDS011;60625;51.212;5.952;2023-05-06T20:26:47;7.20;;;3.30;;
72590;SDS011;60625;51.212;5.952;2023-05-06T20:31:48;6.40;;;3.20;;
72590;SDS011;60625;51.212;5.952;2023-05-06T20:36:48;7.50;;;3.40;;
72590;SDS011;60625;51.212;5.952;2023-05-06T20:41:49;5.80;;;3.60;;
72590;SDS011;60625;51.212;5.952;2023-05-06T20:46:49;7.00;;;3.40;;
72590;SDS011;60625;51.212;5.952;2023-05-06T20:51:50;5.80;;;3.70;;
72590;SDS011;60625;51.212;5.952;2023-05-06T20:56:50;5.50;;;3.40;;
72590;SDS011;60625;51.212;5.952;2023-05-06T21:01:51;6.10;;;3.10;;
72590;SDS011;60625;51.212;5.952;2023-05-06T21:06:52;7.70;;;3.50;;
72590;SDS011;60625;51.212;5.952;2023-05-06T21:11:53;6.80;;;3.60;;
72590;SDS011;60625;51.212;5.952;2023-05-06T21:16:54;5.40;;;3.40;;
72590;SDS011;60625;51.212;5.952;2023-05-06T21:21:54;5.90;;;3.80;;
72590;SDS011;60625;51.212;5.952;2023-05-06T21:26:55;6.10;;;3.70;;
72590;SDS011;60625;51.212;5.952;2023-05-06T21:31:56;7.00;;;3.90;;
72590;SDS011;60625;51.212;5.952;2023-05-06T21:36:57;6.00;;;3.60;;
72590;SDS011;60625;51.212;5.952;2023-05-06T21:41:57;6.90;;;3.60;;
72590;SDS011;60625;51.212;5.952;2023-05-06T21:46:57;7.20;;;3.60;;
72590;SDS011;60625;51.212;5.952;2023-05-06T21:51:58;7.00;;;3.50;;
72590;SDS011;60625;51.212;5.952;2023-05-06T21:56:58;7.80;;;4.20;;
72590;SDS011;60625;51.212;5.952;2023-05-06T22:02:01;6.10;;;3.50;;
72590;SDS011;60625;51.212;5.952;2023-05-06T22:07:02;6.30;;;3.80;;
72590;SDS011;60625;51.212;5.952;2023-05-06T22:12:03;8.60;;;5.00;;
72590;SDS011;60625;51.212;5.952;2023-05-06T22:17:06;7.20;;;4.80;;
72590;SDS011;60625;51.212;5.952;2023-05-06T22:22:07;7.10;;;4.30;;
72590;SDS011;60625;51.212;5.952;2023-05-06T22:27:07;8.70;;;4.20;;
72590;SDS011;60625;51.212;5.952;2023-05-06T22:32:08;9.10;;;5.80;;
72590;SDS011;60625;51.212;5.952;2023-05-06T22:37:09;9.90;;;5.80;;
72590;SDS011;60625;51.212;5.952;2023-05-06T22:42:10;7.50;;;5.40;;
72590;SDS011;60625;51.212;5.952;2023-05-06T22:47:10;9.10;;;5.90;;
72590;SDS011;60625;51.212;5.952;2023-05-06T22:52:11;10.40;;;7.10;;
72590;SDS011;60625;51.212;5.952;2023-05-06T22:57:12;10.20;;;7.40;;
72590;SDS011;60625;51.212;5.952;2023-05-06T23:02:13;9.70;;;6.70;;
72590;SDS011;60625;51.212;5.952;2023-05-06T23:07:14;12.10;;;6.80;;
72590;SDS011;60625;51.212;5.952;2023-05-06T23:12:14;9.20;;;7.20;;
72590;SDS011;60625;51.212;5.952;2023-05-06T23:17:15;12.20;;;7.30;;
72590;SDS011;60625;51.212;5.952;2023-05-06T23:22:15;12.60;;;7.80;;
72590;SDS011;60625;51.212;5.952;2023-05-06T23:27:16;11.10;;;7.60;;
72590;SDS011;60625;51.212;5.952;2023-05-06T23:32:17;12.10;;;8.30;;
72590;SDS011;60625;51.212;5.952;2023-05-06T23:37:17;12.70;;;8.70;;
72590;SDS011;60625;51.212;5.952;2023-05-06T23:42:18;11.90;;;8.70;;
72590;SDS011;60625;51.212;5.952;2023-05-06T23:47:18;11.80;;;9.10;;
72590;SDS011;60625;51.212;5.952;2023-05-06T23:52:19;13.00;;;8.50;;
72590;SDS011;60625;51.212;5.952;2023-05-06T23:57:20;13.10;;;8.40;;
